Time;durP1;ratioP1;P1;durP2;ratioP2;P2;SDS_P1;SDS_P2;PMS_P1;PMS_P2;Temp;Humidity;BMP_temperature;BMP_pressure;BME280_temperature;BME280_humidity;BME280_pressure;Samples;Min_cycle;Max_cycle;Signal;HPM_P1;HPM_P2
2021/01/30 00:01:00;;;;;;;8.63;4.68;;;3.60;99.90;;;;;;5062729;28;20036;-89
2021/01/30 00:03:25;;;;;;;10.98;4.63;;;3.60;99.90;;;;;;5062715;28;20044;-89
2021/01/30 00:05:54;;;;;;;10.55;5.05;;;3.60;99.90;;;;;;5082251;28;20032;-90
2021/01/30 00:08:20;;;;;;;11.60;4.93;;;3.50;99.90;;;;;;5090369;28;20092;-90
2021/01/30 00:10:49;;;;;;;10.90;4.57;;;3.40;99.90;;;;;;5080074;28;20063;-89
2021/01/30 00:13:17;;;;;;;11.50;5.20;;;3.40;99.90;;;;;;5061006;28;20123;-89
2021/01/30 00:15:43;;;;;;;8.45;4.95;;;3.50;99.90;;;;;;5078449;28;20041;-90
2021/01/30 00:18:09;;;;;;;18.73;4.53;;;3.50;99.90;;;;;;5076802;28;20432;-89
2021/01/30 00:20:37;;;;;;;14.63;5.25;;;3.40;99.90;;;;;;5077126;28;20024;-89
2021/01/30 00:23:05;;;;;;;16.13;5.57;;;3.40;99.90;;;;;;5076632;28;20044;-89
2021/01/30 00:25:32;;;;;;;18.63;5.85;;;3.20;99.90;;;;;;5076995;28;20102;-89
2021/01/30 00:27:59;;;;;;;14.00;5.20;;;3.20;99.90;;;;;;5076748;28;20531;-89
2021/01/30 00:30:28;;;;;;;11.05;5.45;;;3.20;99.90;;;;;;5076543;28;20025;-89
2021/01/30 00:32:57;;;;;;;18.55;6.07;;;3.20;99.90;;;;;;5077404;28;20109;-90
2021/01/30 00:35:25;;;;;;;17.92;7.15;;;3.10;99.90;;;;;;5076064;28;20039;-89
2021/01/30 00:37:50;;;;;;;12.73;5.13;;;3.10;99.90;;;;;;5076108;28;20048;-89
2021/01/30 00:40:21;;;;;;;10.85;5.75;;;3.10;99.90;;;;;;5077105;28;20524;-90
2021/01/30 00:42:48;;;;;;;15.25;5.72;;;3.10;99.90;;;;;;5060138;28;20115;-89
2021/01/30 00:45:18;;;;;;;14.88;5.50;;;3.10;99.90;;;;;;5076537;28;20036;-90
2021/01/30 00:47:44;;;;;;;12.18;6.20;;;3.10;99.90;;;;;;5077243;28;20052;-90
2021/01/30 00:50:10;;;;;;;12.68;5.28;;;3.00;99.90;;;;;;5077642;28;20032;-89
2021/01/30 00:52:37;;;;;;;13.85;6.65;;;3.10;99.90;;;;;;5077048;28;20025;-91
2021/01/30 00:55:06;;;;;;;16.67;6.05;;;3.10;99.90;;;;;;5062418;28;20041;-90
2021/01/30 00:57:32;;;;;;;14.00;6.05;;;3.00;99.90;;;;;;5086799;28;20028;-90
2021/01/30 01:00:00;;;;;;;15.23;5.38;;;2.90;99.90;;;;;;5090785;28;20032;-90
2021/01/30 01:02:26;;;;;;;8.98;5.30;;;2.90;99.90;;;;;;5074489;28;20075;-88
2021/01/30 01:04:52;;;;;;;20.23;5.90;;;2.90;99.90;;;;;;5093081;28;20462;-91
2021/01/30 01:07:21;;;;;;;10.82;5.30;;;2.90;99.90;;;;;;5094035;28;20031;-90
2021/01/30 01:09:47;;;;;;;13.18;5.35;;;3.00;99.90;;;;;;5096832;28;20109;-90
2021/01/30 01:12:13;;;;;;;10.60;5.78;;;2.90;99.90;;;;;;5097286;28;20029;-91
2021/01/30 01:14:42;;;;;;;14.43;6.32;;;2.90;99.90;;;;;;5096056;28;20028;-89
2021/01/30 01:17:08;;;;;;;10.18;4.43;;;2.90;99.90;;;;;;5079808;28;20025;-88
2021/01/30 01:19:33;;;;;;;16.38;6.32;;;2.90;99.90;;;;;;5059513;28;20055;-90
2021/01/30 01:22:01;;;;;;;13.52;5.40;;;2.90;99.90;;;;;;5076012;28;20173;-89
2021/01/30 01:24:32;;;;;;;13.60;5.05;;;2.90;99.90;;;;;;5076590;28;20052;-90
2021/01/30 01:26:59;;;;;;;14.52;5.38;;;2.80;99.90;;;;;;5060208;28;20044;-90
2021/01/30 01:29:28;;;;;;;10.75;5.53;;;2.80;99.90;;;;;;5076538;28;20029;-90
2021/01/30 01:31:56;;;;;;;10.27;4.97;;;2.70;99.90;;;;;;5075542;28;20025;-90
2021/01/30 01:34:24;;;;;;;12.80;5.70;;;2.70;99.90;;;;;;5059767;28;20028;-89
2021/01/30 01:36:56;;;;;;;7.43;4.93;;;2.70;99.90;;;;;;5075155;28;20035;-90
2021/01/30 01:39:24;;;;;;;13.75;5.65;;;2.70;99.90;;;;;;5080009;28;20051;-90
2021/01/30 01:42:24;;;;;;;11.80;5.57;;;2.60;99.90;;;;;;5086755;28;20051;-89
2021/01/30 01:44:52;;;;;;;10.77;5.78;;;2.50;99.90;;;;;;5077662;28;20066;-89
2021/01/30 01:47:49;;;;;;;;;;;;;;;;;;;;;
2021/01/30 01:50:26;;;;;;;15.80;5.88;;;2.50;99.90;;;;;;5090014;28;20059;-89
2021/01/30 01:53:01;;;;;;;12.88;5.47;;;2.50;99.90;;;;;;5090572;28;20031;-90
2021/01/30 01:55:27;;;;;;;12.52;6.40;;;2.50;99.90;;;;;;5083432;28;20047;-89
2021/01/30 01:58:03;;;;;;;14.63;5.72;;;2.40;99.90;;;;;;5083911;28;20021;-90
2021/01/30 02:00:30;;;;;;;29.90;6.72;;;2.50;99.90;;;;;;5074638;28;20029;-89
2021/01/30 02:02:57;;;;;;;11.63;6.50;;;2.50;99.90;;;;;;5067508;28;20109;-90
2021/01/30 02:05:32;;;;;;;10.68;5.72;;;2.50;99.90;;;;;;5075774;28;20103;-90
2021/01/30 02:08:30;;;;;;;12.40;5.78;;;2.40;99.90;;;;;;5074708;28;20038;-90
2021/01/30 02:10:57;;;;;;;8.27;5.90;;;2.30;99.90;;;;;;5067521;28;20040;-88
2021/01/30 02:13:47;;;;;;;13.30;6.70;;;2.30;99.90;;;;;;5075512;28;20111;-89
2021/01/30 02:16:37;;;;;;;11.38;6.03;;;2.30;99.90;;;;;;5073618;28;20125;-89
2021/01/30 02:19:30;;;;;;;14.15;6.70;;;2.40;99.90;;;;;;5074593;28;20020;-88
2021/01/30 02:22:47;;;;;;;11.90;6.55;;;2.30;99.90;;;;;;5077291;28;20060;-89
2021/01/30 02:26:00;;;;;;;10.77;6.30;;;2.10;99.90;;;;;;5074278;28;20029;-89
2021/01/30 02:28:56;;;;;;;11.73;6.43;;;2.10;99.90;;;;;;5049561;28;20043;-92
2021/01/30 02:32:10;;;;;;;14.23;7.15;;;2.00;99.90;;;;;;5075700;28;20040;-91
2021/01/30 02:35:12;;;;;;;11.30;6.22;;;2.00;99.90;;;;;;4977495;28;20572;-91
2021/01/30 02:38:06;;;;;;;10.38;6.22;;;2.00;99.90;;;;;;4997043;28;20045;-92
2021/01/30 02:40:54;;;;;;;7.55;5.75;;;2.10;99.90;;;;;;4998474;28;20058;-93
2021/01/30 02:43:26;;;;;;;7.05;5.40;;;2.10;99.90;;;;;;4939467;29;20165;-92
2021/01/30 02:46:02;;;;;;;9.80;5.75;;;2.10;99.90;;;;;;4983583;28;20048;-92
2021/01/30 02:48:39;;;;;;;6.68;5.15;;;2.00;99.90;;;;;;5036314;28;20055;-92
2021/01/30 02:51:11;;;;;;;8.43;5.22;;;2.00;99.90;;;;;;5036123;28;20029;-91
2021/01/30 02:53:47;;;;;;;6.88;4.78;;;2.00;99.90;;;;;;5019546;28;20048;-91
2021/01/30 02:56:16;;;;;;;5.95;4.57;;;2.00;99.90;;;;;;5037282;28;20037;-90
2021/01/30 02:59:05;;;;;;;7.05;5.10;;;2.10;99.90;;;;;;5052396;28;20033;-91
2021/01/30 03:01:39;;;;;;;7.05;4.45;;;2.10;99.90;;;;;;5036866;28;20053;-91
2021/01/30 03:04:28;;;;;;;6.78;4.53;;;2.00;99.90;;;;;;5019707;28;20454;-91
2021/01/30 03:06:59;;;;;;;9.43;4.82;;;2.00;99.90;;;;;;5019550;28;20087;-90
2021/01/30 03:09:53;;;;;;;8.02;4.88;;;1.90;99.90;;;;;;5035729;28;20033;-91
2021/01/30 03:12:38;;;;;;;8.50;5.05;;;2.00;99.90;;;;;;5065709;28;20041;-90
2021/01/30 03:15:18;;;;;;;7.07;5.40;;;2.00;99.90;;;;;;5058550;28;20037;-90
2021/01/30 03:17:52;;;;;;;6.70;4.57;;;2.00;99.90;;;;;;5021085;28;20056;-91
2021/01/30 03:20:18;;;;;;;6.53;4.70;;;2.00;99.90;;;;;;5037513;28;20040;-91
2021/01/30 03:22:47;;;;;;;5.43;4.20;;;1.90;99.90;;;;;;5039293;28;20052;-88
2021/01/30 03:25:23;;;;;;;7.68;5.18;;;1.90;99.90;;;;;;5023526;28;20072;-88
2021/01/30 03:27:50;;;;;;;11.85;4.82;;;1.90;99.90;;;;;;5039395;28;20040;-88
2021/01/30 03:30:20;;;;;;;7.65;5.20;;;1.80;99.90;;;;;;5036757;28;20040;-90
2021/01/30 03:32:48;;;;;;;8.02;5.63;;;1.90;99.90;;;;;;5020868;28;20025;-89
2021/01/30 03:35:17;;;;;;;7.43;5.30;;;1.80;99.90;;;;;;5020739;28;20049;-90
2021/01/30 03:37:43;;;;;;;7.18;5.47;;;1.90;99.90;;;;;;5020653;28;20048;-89
2021/01/30 03:40:11;;;;;;;9.02;5.60;;;2.00;99.90;;;;;;5035870;28;20060;-90
2021/01/30 03:42:38;;;;;;;8.25;5.20;;;2.00;99.90;;;;;;5035682;28;20092;-90
2021/01/30 03:45:08;;;;;;;6.85;5.72;;;1.90;99.90;;;;;;5038920;28;20037;-90
2021/01/30 03:47:35;;;;;;;10.57;5.60;;;2.00;99.90;;;;;;5081261;28;20024;-91
2021/01/30 03:50:11;;;;;;;8.23;5.47;;;2.00;99.90;;;;;;5077227;28;20028;-91
2021/01/30 03:52:37;;;;;;;7.22;5.20;;;1.90;99.90;;;;;;5087122;28;20050;-90
2021/01/30 03:55:05;;;;;;;9.10;5.75;;;2.00;99.90;;;;;;5074186;28;20040;-91
2021/01/30 03:57:34;;;;;;;7.50;5.47;;;2.00;99.90;;;;;;5072907;28;20032;-90
2021/01/30 03:59:59;;;;;;;9.25;5.75;;;2.00;99.90;;;;;;5073264;28;20024;-90
2021/01/30 04:02:25;;;;;;;6.88;5.03;;;1.90;99.90;;;;;;5072086;28;20025;-91
2021/01/30 04:04:51;;;;;;;7.20;4.82;;;1.90;99.90;;;;;;5072327;28;20390;-90
2021/01/30 04:07:18;;;;;;;6.90;4.60;;;1.80;99.90;;;;;;5072285;28;20458;-90
2021/01/30 04:09:44;;;;;;;6.35;4.40;;;1.90;99.90;;;;;;5071927;28;20032;-91
2021/01/30 04:12:12;;;;;;;6.40;4.57;;;1.90;99.90;;;;;;5072346;28;20127;-89
2021/01/30 04:14:38;;;;;;;9.25;4.72;;;1.80;99.90;;;;;;5072094;28;20214;-89
2021/01/30 04:17:05;;;;;;;7.45;4.28;;;1.90;99.90;;;;;;5072574;28;20226;-88
2021/01/30 04:19:31;;;;;;;8.35;4.22;;;1.80;99.90;;;;;;5056273;28;20035;-90
2021/01/30 04:21:59;;;;;;;8.45;5.00;;;1.80;99.90;;;;;;5072110;28;20049;-90
2021/01/30 04:24:31;;;;;;;7.35;5.03;;;1.70;99.90;;;;;;5056860;28;20154;-90
2021/01/30 04:26:57;;;;;;;7.57;4.53;;;1.70;99.90;;;;;;5056818;28;20041;-91
2021/01/30 04:29:25;;;;;;;7.13;4.85;;;1.70;99.90;;;;;;5075003;28;20174;-89
2021/01/30 04:31:58;;;;;;;7.82;5.13;;;1.70;99.90;;;;;;5075122;28;20048;-89
2021/01/30 04:34:25;;;;;;;8.43;5.70;;;1.70;99.90;;;;;;5074134;28;20028;-90
2021/01/30 04:36:53;;;;;;;8.63;5.38;;;1.70;99.90;;;;;;5073244;28;20036;-89
2021/01/30 04:39:22;;;;;;;8.02;5.13;;;1.70;99.90;;;;;;5073156;28;20036;-91
2021/01/30 04:42:07;;;;;;;6.55;4.70;;;1.70;99.90;;;;;;5076240;28;20025;-90
2021/01/30 04:45:01;;;;;;;8.37;5.27;;;1.60;99.90;;;;;;5077491;28;20028;-91
2021/01/30 04:47:58;;;;;;;8.15;5.45;;;1.60;99.90;;;;;;5059831;28;20110;-90
2021/01/30 04:50:48;;;;;;;8.02;5.32;;;1.60;99.90;;;;;;5076558;28;20028;-90
2021/01/30 04:53:36;;;;;;;9.45;5.68;;;1.60;99.90;;;;;;5078285;28;20020;-90
2021/01/30 04:56:31;;;;;;;12.98;6.28;;;1.50;99.90;;;;;;5076637;28;20093;-90
2021/01/30 04:59:25;;;;;;;8.13;5.72;;;1.40;99.90;;;;;;5075970;28;20040;-90
2021/01/30 05:02:25;;;;;;;8.85;5.18;;;1.50;99.90;;;;;;5075866;28;20116;-90
2021/01/30 05:04:58;;;;;;;11.77;6.88;;;1.50;99.90;;;;;;5075117;28;20094;-91
2021/01/30 05:07:51;;;;;;;11.05;6.50;;;1.50;99.90;;;;;;5077714;28;20107;-89
2021/01/30 05:10:27;;;;;;;15.00;8.02;;;1.50;99.90;;;;;;5062264;28;20024;-90
2021/01/30 05:13:19;;;;;;;12.88;7.55;;;1.50;99.90;;;;;;5078764;28;20024;-89
2021/01/30 05:16:37;;;;;;;12.68;7.68;;;1.40;99.90;;;;;;5076168;28;20079;-90
2021/01/30 05:19:08;;;;;;;12.43;7.80;;;1.50;99.90;;;;;;5041504;28;20504;-91
2021/01/30 05:21:58;;;;;;;13.45;8.48;;;1.40;99.90;;;;;;5075008;28;20028;-90
2021/01/30 05:24:26;;;;;;;13.15;8.35;;;1.50;99.90;;;;;;5074935;28;20040;-91
2021/01/30 05:27:16;;;;;;;13.57;7.65;;;1.50;99.90;;;;;;5075231;28;20036;-90
2021/01/30 05:30:07;;;;;;;14.68;7.78;;;1.50;99.90;;;;;;5075705;28;20166;-90
2021/01/30 05:33:12;;;;;;;12.82;8.50;;;1.50;99.90;;;;;;5076841;28;20051;-90
2021/01/30 05:36:19;;;;;;;14.98;8.80;;;1.50;99.90;;;;;;5075313;28;20033;-90
2021/01/30 05:39:17;;;;;;;13.13;8.45;;;1.50;99.90;;;;;;5061992;28;20511;-90
2021/01/30 05:42:07;;;;;;;10.65;7.47;;;1.50;99.90;;;;;;5074888;28;20052;-91
2021/01/30 05:44:43;;;;;;;15.20;8.45;;;1.50;99.90;;;;;;5075418;28;20437;-90
2021/01/30 05:47:35;;;;;;;;;;;;;;;;;;;;;
2021/01/30 05:50:42;;;;;;;16.65;8.68;;;1.50;99.90;;;;;;5072281;28;20127;-90
2021/01/30 05:53:12;;;;;;;14.32;8.73;;;1.50;99.90;;;;;;5076460;28;20025;-91
2021/01/30 05:55:39;;;;;;;12.77;8.68;;;1.50;99.90;;;;;;5079592;28;20121;-91
2021/01/30 05:58:21;;;;;;;12.68;8.40;;;1.50;99.90;;;;;;5086989;28;20032;-91
2021/01/30 06:00:47;;;;;;;12.27;7.90;;;1.40;99.90;;;;;;5059482;28;20466;-90
2021/01/30 06:03:22;;;;;;;13.05;9.07;;;1.40;99.90;;;;;;5075186;28;20029;-91
2021/01/30 06:05:49;;;;;;;;;;;1.30;99.90;;;;;;5074936;28;20039;-91
2021/01/30 06:08:21;;;;;;;13.02;8.52;;;1.30;99.90;;;;;;5076090;28;19905;-91
2021/01/30 06:10:56;;;;;;;12.32;9.52;;;1.30;99.90;;;;;;5075378;28;20428;-92
2021/01/30 06:13:27;;;;;;;14.93;8.45;;;1.20;99.90;;;;;;5075800;28;20060;-92
2021/01/30 06:15:58;;;;;;;13.43;8.40;;;1.30;99.90;;;;;;5076942;28;20037;-91
2021/01/30 06:18:31;;;;;;;13.13;9.18;;;1.20;99.90;;;;;;5075574;28;20040;-91
2021/01/30 06:21:20;;;;;;;12.35;8.88;;;1.20;99.90;;;;;;5075109;28;20063;-91
2021/01/30 06:24:11;;;;;;;12.77;8.32;;;1.20;99.90;;;;;;5073338;28;20462;-91
2021/01/30 06:26:49;;;;;;;12.57;8.90;;;1.20;99.90;;;;;;5075867;28;20101;-91
2021/01/30 06:29:46;;;;;;;12.40;8.45;;;1.20;99.90;;;;;;5075495;28;20032;-91
2021/01/30 06:32:18;;;;;;;13.07;7.82;;;1.20;99.90;;;;;;5074151;28;20025;-92
2021/01/30 06:34:50;;;;;;;13.00;8.73;;;1.20;99.90;;;;;;5074198;28;20470;-92
2021/01/30 06:37:38;;;;;;;14.27;8.00;;;1.20;99.90;;;;;;5057676;28;20064;-91
2021/01/30 06:40:20;;;;;;;11.18;7.95;;;1.20;99.90;;;;;;5073561;28;20029;-92
2021/01/30 06:42:51;;;;;;;12.25;7.70;;;1.30;99.90;;;;;;5073998;28;20067;-91
2021/01/30 06:45:35;;;;;;;10.43;7.82;;;1.20;99.90;;;;;;5057165;28;20024;-92
2021/01/30 06:48:02;;;;;;;12.07;7.97;;;1.30;99.90;;;;;;5073376;28;20078;-91
2021/01/30 06:50:42;;;;;;;11.70;7.47;;;1.30;99.90;;;;;;5073086;28;20024;-91
2021/01/30 06:53:18;;;;;;;14.80;8.70;;;1.30;99.90;;;;;;5073638;28;20119;-91
2021/01/30 06:55:44;;;;;;;13.85;8.13;;;1.40;99.90;;;;;;5073967;28;20066;-91
2021/01/30 06:58:23;;;;;;;15.35;8.60;;;1.50;99.90;;;;;;5073770;28;20024;-91
2021/01/30 07:00:50;;;;;;;12.43;7.93;;;1.40;99.90;;;;;;5074309;28;20028;-91
2021/01/30 07:03:27;;;;;;;11.77;8.07;;;1.40;99.90;;;;;;5073676;28;20028;-91
2021/01/30 07:06:02;;;;;;;13.02;7.88;;;1.30;99.90;;;;;;5074096;28;20060;-90
2021/01/30 07:08:30;;;;;;;;;;;1.30;99.90;;;;;;5075356;28;20024;-90
2021/01/30 07:11:08;;;;;;;16.73;8.77;;;1.30;99.90;;;;;;5075127;28;20264;-91
2021/01/30 07:14:11;;;;;;;13.52;8.38;;;1.30;99.90;;;;;;5074473;28;20048;-92
2021/01/30 07:16:43;;;;;;;15.80;7.93;;;1.30;99.90;;;;;;5050857;28;20068;-91
2021/01/30 07:19:38;;;;;;;11.85;8.02;;;1.30;99.90;;;;;;5077665;28;20085;-91
2021/01/30 07:22:09;;;;;;;13.85;8.68;;;1.40;99.90;;;;;;5079182;28;20085;-92
2021/01/30 07:25:04;;;;;;;11.50;8.00;;;1.40;99.90;;;;;;5079386;28;20032;-92
2021/01/30 07:27:37;;;;;;;13.45;8.55;;;1.40;99.90;;;;;;5028086;28;20033;-91
2021/01/30 07:30:15;;;;;;;12.70;8.70;;;1.50;99.90;;;;;;5079680;28;20047;-91
2021/01/30 07:33:02;;;;;;;15.35;8.25;;;1.50;99.90;;;;;;5081694;28;20029;-91
2021/01/30 07:35:34;;;;;;;15.52;8.98;;;1.50;99.90;;;;;;5090661;28;20050;-91
2021/01/30 07:38:30;;;;;;;12.30;8.63;;;1.50;99.90;;;;;;5094529;28;20025;-91
2021/01/30 07:41:00;;;;;;;14.60;8.75;;;1.50;99.90;;;;;;5096191;28;20100;-91
2021/01/30 07:43:34;;;;;;;14.25;8.65;;;1.50;99.90;;;;;;5096001;28;20020;-92
2021/01/30 07:46:16;;;;;;;14.98;9.10;;;1.50;99.90;;;;;;5095026;28;20033;-91
2021/01/30 07:48:53;;;;;;;13.00;8.93;;;1.40;99.90;;;;;;5093343;28;20092;-90
2021/01/30 07:51:25;;;;;;;10.13;7.32;;;1.50;99.90;;;;;;5086724;28;20021;-92
2021/01/30 07:53:51;;;;;;;16.30;9.63;;;1.50;99.90;;;;;;5094714;28;20035;-90
2021/01/30 07:56:19;;;;;;;14.18;7.72;;;1.50;99.90;;;;;;5095816;28;20033;-91
2021/01/30 07:58:57;;;;;;;13.38;9.55;;;1.50;99.90;;;;;;5095972;28;20088;-90
2021/01/30 08:01:29;;;;;;;13.45;8.95;;;1.50;99.90;;;;;;5095958;28;20047;-92
2021/01/30 08:04:01;;;;;;;11.65;8.10;;;1.50;99.90;;;;;;5096126;28;20064;-90
2021/01/30 08:07:03;;;;;;;13.57;8.38;;;1.50;99.90;;;;;;5097281;28;20013;-93
2021/01/30 08:09:47;;;;;;;12.88;9.40;;;1.50;99.90;;;;;;5095106;28;20009;-94
2021/01/30 08:12:23;;;;;;;14.57;8.82;;;1.50;99.90;;;;;;5070237;28;20584;-91
2021/01/30 08:15:12;;;;;;;14.38;8.90;;;1.50;99.90;;;;;;5071318;28;20025;-93
2021/01/30 08:18:07;;;;;;;13.63;9.00;;;1.40;99.90;;;;;;5066802;28;20108;-91
2021/01/30 08:21:00;;;;;;;12.90;9.02;;;1.40;99.90;;;;;;5071482;28;20037;-93
2021/01/30 08:23:47;;;;;;;13.80;8.73;;;1.50;99.90;;;;;;5072141;28;20064;-92
2021/01/30 08:26:52;;;;;;;12.48;8.32;;;1.50;99.90;;;;;;5069099;28;20025;-93
2021/01/30 08:29:43;;;;;;;14.05;8.65;;;1.50;99.90;;;;;;5064086;28;20025;-94
2021/01/30 08:32:24;;;;;;;12.40;8.45;;;1.60;99.90;;;;;;5057655;28;20040;-91
2021/01/30 08:34:56;;;;;;;16.67;8.38;;;1.60;99.90;;;;;;5057578;28;20123;-91
2021/01/30 08:37:55;;;;;;;13.80;9.18;;;1.60;99.90;;;;;;5057208;28;20387;-92
2021/01/30 08:40:44;;;;;;;10.95;7.97;;;1.60;99.90;;;;;;5054318;28;20154;-94
2021/01/30 08:43:29;;;;;;;11.65;8.43;;;1.60;99.90;;;;;;5057756;28;20029;-89
2021/01/30 08:46:25;;;;;;;13.13;8.30;;;1.70;99.90;;;;;;5058830;28;20529;-92
2021/01/30 08:49:21;;;;;;;14.93;10.57;;;1.60;99.90;;;;;;5058000;28;20028;-91
2021/01/30 08:52:20;;;;;;;12.75;8.73;;;1.60;99.90;;;;;;5058502;28;20052;-91
2021/01/30 08:54:50;;;;;;;14.95;8.85;;;1.60;99.90;;;;;;5058582;28;20101;-92
2021/01/30 08:57:31;;;;;;;12.50;9.23;;;1.70;99.90;;;;;;5057188;28;20037;-92
2021/01/30 09:00:06;;;;;;;14.45;9.27;;;1.70;99.90;;;;;;5057652;28;20036;-92
2021/01/30 09:02:48;;;;;;;13.85;8.65;;;1.70;99.90;;;;;;5057593;28;20451;-92
2021/01/30 09:05:32;;;;;;;10.80;7.90;;;1.80;99.90;;;;;;5057144;28;20090;-92
2021/01/30 09:08:11;;;;;;;11.13;8.37;;;2.10;99.90;;;;;;5060214;28;20029;-92
2021/01/30 09:10:39;;;;;;;10.60;8.18;;;2.10;99.90;;;;;;5056463;28;20282;-92
2021/01/30 09:13:11;;;;;;;13.90;7.78;;;2.30;99.90;;;;;;5057806;28;20021;-92
2021/01/30 09:15:40;;;;;;;10.43;7.68;;;2.40;99.90;;;;;;5056930;28;20466;-90
2021/01/30 09:18:39;;;;;;;11.38;8.68;;;2.30;99.90;;;;;;5057567;28;20136;-91
2021/01/30 09:21:37;;;;;;;9.98;7.47;;;2.10;99.90;;;;;;5057655;28;20036;-91
2021/01/30 09:24:08;;;;;;;11.20;7.75;;;2.10;99.90;;;;;;5056957;28;20140;-92
2021/01/30 09:27:19;;;;;;;11.85;8.68;;;2.10;99.90;;;;;;5059071;28;20029;-91
2021/01/30 09:30:00;;;;;;;;;;;;;;;;;;;;;
2021/01/30 09:32:35;;;;;;;12.73;8.70;;;1.90;99.90;;;;;;5063007;28;20208;-91
2021/01/30 09:35:10;;;;;;;12.80;8.38;;;1.80;99.90;;;;;;5059066;28;20033;-90
2021/01/30 09:37:44;;;;;;;15.18;9.85;;;1.80;99.90;;;;;;5059454;28;20109;-91
2021/01/30 09:40:25;;;;;;;12.98;9.23;;;2.00;99.90;;;;;;5059771;28;20071;-90
2021/01/30 09:43:17;;;;;;;13.15;8.10;;;2.00;99.90;;;;;;5057175;28;20033;-91
2021/01/30 09:45:51;;;;;;;12.57;8.60;;;1.90;99.90;;;;;;5057298;28;20490;-90
2021/01/30 09:48:19;;;;;;;12.15;8.65;;;2.00;99.90;;;;;;5058217;28;20032;-90
2021/01/30 09:50:57;;;;;;;12.65;8.95;;;2.00;99.90;;;;;;5057315;28;20029;-89
2021/01/30 09:53:43;;;;;;;13.27;8.60;;;1.90;99.90;;;;;;5061870;28;20059;-90
2021/01/30 09:56:17;;;;;;;13.30;9.32;;;1.90;99.90;;;;;;5066786;28;20041;-90
2021/01/30 09:58:46;;;;;;;13.65;9.82;;;2.00;99.90;;;;;;5059894;28;20193;-88
2021/01/30 10:01:31;;;;;;;14.88;9.80;;;2.00;99.90;;;;;;5057531;28;20486;-88
2021/01/30 10:04:16;;;;;;;16.02;10.20;;;2.00;99.90;;;;;;5058259;28;20139;-89
2021/01/30 10:06:42;;;;;;;13.77;9.52;;;2.00;99.90;;;;;;5059607;28;20021;-89
2021/01/30 10:09:17;;;;;;;14.75;10.43;;;2.00;99.90;;;;;;5065506;28;20028;-89
2021/01/30 10:11:48;;;;;;;18.75;11.38;;;2.00;99.90;;;;;;5056043;28;20021;-88
2021/01/30 10:14:15;;;;;;;14.70;10.52;;;2.10;99.90;;;;;;5054958;28;20035;-90
2021/01/30 10:16:45;;;;;;;15.57;10.18;;;2.20;99.90;;;;;;5056526;28;20083;-89
2021/01/30 10:19:23;;;;;;;15.50;10.63;;;2.20;99.90;;;;;;5055082;28;20029;-89
2021/01/30 10:21:59;;;;;;;16.45;10.25;;;2.20;99.90;;;;;;5057215;28;20028;-90
2021/01/30 10:24:29;;;;;;;14.25;9.93;;;2.30;99.90;;;;;;5056189;28;20060;-88
2021/01/30 10:27:13;;;;;;;13.15;9.57;;;2.30;99.90;;;;;;5057752;28;20040;-89
2021/01/30 10:29:40;;;;;;;15.02;9.88;;;2.20;99.90;;;;;;5056511;28;20104;-87
2021/01/30 10:32:39;;;;;;;18.08;8.95;;;2.20;99.90;;;;;;5071803;28;20560;-87
2021/01/30 10:35:11;;;;;;;12.55;9.30;;;2.10;99.90;;;;;;5054390;28;20054;-87
2021/01/30 10:37:55;;;;;;;13.25;9.38;;;2.20;99.90;;;;;;5055227;28;20029;-86
2021/01/30 10:40:51;;;;;;;11.82;8.52;;;2.20;99.90;;;;;;5055257;28;20033;-87
2021/01/30 10:43:39;;;;;;;14.40;8.47;;;2.30;99.90;;;;;;5054716;28;20025;-88
2021/01/30 10:46:29;;;;;;;11.07;8.02;;;2.30;99.90;;;;;;5051878;28;20745;-89
2021/01/30 10:49:04;;;;;;;11.85;8.63;;;2.30;99.90;;;;;;5054316;28;20082;-88
2021/01/30 10:51:34;;;;;;;;;;;2.30;99.90;;;;;;5055331;28;20094;-89
2021/01/30 10:54:38;;;;;;;11.35;8.20;;;2.30;99.90;;;;;;5056422;28;19909;-89
2021/01/30 10:57:10;;;;;;;12.80;9.25;;;2.40;99.90;;;;;;5056513;28;20039;-91
2021/01/30 10:59:54;;;;;;;11.82;8.27;;;2.40;99.90;;;;;;5054990;28;20021;-92
2021/01/30 11:02:26;;;;;;;13.05;9.20;;;2.40;99.90;;;;;;5055833;28;20033;-91
2021/01/30 11:05:09;;;;;;;11.75;8.93;;;2.40;99.90;;;;;;5053674;28;20029;-91
2021/01/30 11:07:42;;;;;;;12.57;8.60;;;2.40;99.90;;;;;;5057762;28;20025;-92
2021/01/30 11:10:29;;;;;;;11.50;8.52;;;2.50;99.90;;;;;;5056360;28;20367;-90
2021/01/30 11:13:13;;;;;;;13.10;9.05;;;2.40;99.90;;;;;;5055948;28;20025;-90
2021/01/30 11:15:43;;;;;;;11.32;8.15;;;2.50;99.90;;;;;;5055009;28;20033;-90
2021/01/30 11:18:13;;;;;;;14.93;8.20;;;2.50;99.90;;;;;;5055984;28;20174;-91
2021/01/30 11:20:44;;;;;;;11.25;7.75;;;2.60;99.90;;;;;;5071554;28;20056;-91
2021/01/30 11:23:31;;;;;;;11.68;8.43;;;2.60;99.90;;;;;;5055203;28;20513;-91
2021/01/30 11:25:57;;;;;;;12.40;8.27;;;2.60;99.90;;;;;;5055595;28;20040;-91
2021/01/30 11:28:35;;;;;;;11.25;8.02;;;2.60;99.90;;;;;;5055766;28;20053;-91
2021/01/30 11:31:05;;;;;;;15.13;9.80;;;2.60;99.90;;;;;;5062607;28;20119;-90
2021/01/30 11:33:34;;;;;;;10.88;7.88;;;2.70;99.90;;;;;;5058345;28;20083;-94
2021/01/30 11:36:03;;;;;;;11.23;7.40;;;2.70;99.90;;;;;;5055713;28;20045;-92
2021/01/30 11:38:29;;;;;;;11.20;7.93;;;2.70;99.90;;;;;;5053202;28;20033;-91
2021/01/30 11:41:06;;;;;;;11.50;7.72;;;2.70;99.90;;;;;;5053520;28;20025;-93
2021/01/30 11:43:36;;;;;;;11.68;8.50;;;2.70;99.90;;;;;;5053694;28;20039;-92
2021/01/30 11:46:11;;;;;;;12.05;8.65;;;2.70;99.90;;;;;;5052569;28;20115;-91
2021/01/30 11:48:39;;;;;;;11.07;6.82;;;2.70;99.90;;;;;;5056364;28;20029;-92
2021/01/30 11:51:05;;;;;;;13.20;7.78;;;2.70;99.90;;;;;;5051866;28;20045;-93
2021/01/30 11:53:36;;;;;;;14.38;7.18;;;2.70;99.90;;;;;;5069654;28;20119;-92
2021/01/30 11:56:02;;;;;;;8.98;7.03;;;2.70;99.90;;;;;;5052969;28;20040;-92
2021/01/30 11:58:33;;;;;;;13.88;7.25;;;2.80;99.90;;;;;;5053315;28;20029;-95
2021/01/30 12:01:03;;;;;;;13.05;6.90;;;2.80;99.90;;;;;;5055227;28;20040;-93
2021/01/30 12:03:30;;;;;;;8.98;6.72;;;2.80;99.90;;;;;;5053979;28;20032;-93
2021/01/30 12:06:06;;;;;;;10.50;7.32;;;2.80;99.90;;;;;;5055083;28;20094;-92
2021/01/30 12:08:32;;;;;;;10.15;7.03;;;2.90;99.90;;;;;;5051737;28;20111;-93
2021/01/30 12:11:02;;;;;;;10.43;6.50;;;2.90;99.90;;;;;;5053078;28;20243;-92
2021/01/30 12:13:29;;;;;;;10.18;7.15;;;2.90;99.90;;;;;;5053552;28;20072;-89
2021/01/30 12:15:54;;;;;;;10.05;7.35;;;2.90;99.90;;;;;;5055316;28;20033;-90
2021/01/30 12:18:22;;;;;;;8.60;6.32;;;2.90;99.90;;;;;;5063279;28;20035;-90
2021/01/30 12:20:51;;;;;;;10.27;7.05;;;2.80;99.90;;;;;;5056738;28;20033;-90
2021/01/30 12:23:17;;;;;;;9.48;7.10;;;2.80;99.90;;;;;;5052971;28;20087;-89
2021/01/30 12:25:43;;;;;;;9.50;6.97;;;2.80;99.90;;;;;;5052139;28;20063;-90
2021/01/30 12:28:13;;;;;;;9.02;6.70;;;2.80;99.90;;;;;;5052662;28;20433;-90
2021/01/30 12:30:43;;;;;;;10.23;7.30;;;2.70;99.90;;;;;;5052513;28;20025;-92
2021/01/30 12:33:17;;;;;;;10.85;7.53;;;2.80;99.90;;;;;;5051865;28;20017;-92
2021/01/30 12:35:44;;;;;;;;;;;2.70;99.90;;;;;;5052831;28;20028;-91
2021/01/30 12:38:21;;;;;;;10.52;7.53;;;2.70;99.90;;;;;;5052235;28;20047;-92
2021/01/30 12:40:48;;;;;;;14.52;7.88;;;2.80;99.90;;;;;;5052018;28;20136;-93
2021/01/30 12:43:16;;;;;;;10.07;7.65;;;2.90;99.90;;;;;;5052379;28;20032;-91
2021/01/30 12:45:43;;;;;;;12.05;8.73;;;2.90;99.90;;;;;;5052652;28;20429;-91
2021/01/30 12:48:09;;;;;;;12.65;8.93;;;2.90;99.90;;;;;;5052295;28;20032;-91
2021/01/30 12:50:46;;;;;;;13.48;10.00;;;2.90;99.90;;;;;;5052883;28;20022;-92
2021/01/30 12:53:12;;;;;;;15.95;9.38;;;2.90;99.90;;;;;;5052228;28;20021;-92
2021/01/30 12:55:49;;;;;;;15.77;11.02;;;2.80;99.90;;;;;;5052785;28;20119;-93
2021/01/30 12:58:25;;;;;;;15.30;10.93;;;2.80;99.90;;;;;;5052240;28;20121;-92
2021/01/30 13:01:03;;;;;;;20.70;13.02;;;2.70;99.90;;;;;;5052037;28;20048;-92
2021/01/30 13:03:32;;;;;;;16.92;10.95;;;2.70;99.90;;;;;;5055520;28;20025;-93
2021/01/30 13:06:28;;;;;;;17.70;11.25;;;2.70;99.90;;;;;;5056177;28;20064;-92
2021/01/30 13:08:57;;;;;;;16.75;11.50;;;2.60;99.90;;;;;;5055975;28;20029;-92
2021/01/30 13:11:23;;;;;;;18.10;10.70;;;2.60;99.90;;;;;;5055562;28;20048;-91
2021/01/30 13:13:56;;;;;;;16.13;11.02;;;2.60;99.90;;;;;;5056072;28;20032;-92
2021/01/30 13:16:43;;;;;;;;;;;;;;;;;;;;;
2021/01/30 13:19:14;;;;;;;19.88;11.20;;;2.60;99.90;;;;;;5069010;28;20052;-92
2021/01/30 13:21:44;;;;;;;18.40;11.40;;;2.60;99.90;;;;;;5055857;28;20029;-91
2021/01/30 13:24:10;;;;;;;16.10;11.13;;;2.50;99.90;;;;;;5057199;28;20114;-92
2021/01/30 13:27:04;;;;;;;17.33;11.05;;;2.60;99.90;;;;;;5066154;28;20488;-91
2021/01/30 13:29:41;;;;;;;21.33;13.10;;;2.60;99.90;;;;;;5067404;28;20089;-91
2021/01/30 13:32:07;;;;;;;21.17;12.20;;;2.60;99.90;;;;;;5065081;28;20455;-91
2021/01/30 13:34:43;;;;;;;24.38;13.45;;;2.60;99.90;;;;;;5057821;28;20101;-93
2021/01/30 13:37:26;;;;;;;20.05;12.68;;;2.60;99.90;;;;;;5057463;28;20029;-91
2021/01/30 13:40:00;;;;;;;20.25;11.73;;;2.60;99.90;;;;;;5057867;28;20052;-94
2021/01/30 13:42:37;;;;;;;22.70;13.07;;;2.60;99.90;;;;;;5057756;28;20055;-91